createdAt,value
2019-02-08T00:00:58.433Z,15
2019-02-08T00:05:58.496Z,10
2019-02-08T00:10:58.496Z,16
2019-02-08T00:15:58.432Z,8
2019-02-08T00:20:58.322Z,12
2019-02-08T00:25:58.213Z,11
2019-02-08T00:30:58.162Z,13
2019-02-08T00:35:58.286Z,11
2019-02-08T00:40:58.438Z,8
2019-02-08T00:45:58.403Z,12
2019-02-08T00:50:58.266Z,7
2019-02-08T00:55:58.178Z,11
2019-02-08T01:00:58.507Z,9
2019-02-08T01:05:58.640Z,8
2019-02-08T01:10:58.209Z,16
2019-02-08T01:15:58.320Z,12
2019-02-08T01:20:58.104Z,8
2019-02-08T01:25:58.191Z,17
2019-02-08T01:30:58.087Z,11
2019-02-08T01:35:58.082Z,13
2019-02-08T01:40:58.289Z,19
2019-02-08T01:45:58.162Z,12
2019-02-08T01:50:58.003Z,17
2019-02-08T01:55:58.001Z,14
2019-02-08T02:00:58.332Z,14
2019-02-08T02:05:58.066Z,13
2019-02-08T02:10:58.395Z,19
2019-02-08T02:15:58.021Z,22
2019-02-08T02:20:58.198Z,12
2019-02-08T02:25:57.964Z,17
2019-02-08T02:30:58.176Z,20
2019-02-08T02:35:58.298Z,8
2019-02-08T02:40:58.151Z,12
2019-02-08T02:45:58.242Z,11
2019-02-08T02:50:58.081Z,13
2019-02-08T02:55:58.147Z,16
2019-02-08T03:00:57.993Z,17
2019-02-08T03:05:57.956Z,12
2019-02-08T03:10:58.015Z,24
2019-02-08T03:15:58.150Z,17
2019-02-08T03:20:58.042Z,17
2019-02-08T03:25:58.031Z,16
2019-02-08T03:30:57.957Z,14
2019-02-08T03:35:57.955Z,14
2019-02-08T03:40:58.250Z,24
2019-02-08T03:45:57.888Z,20
2019-02-08T03:50:58.044Z,29
2019-02-08T03:55:58.816Z,27
2019-02-08T04:00:57.955Z,24
2019-02-08T04:05:57.950Z,25
2019-02-08T04:10:57.865Z,20
2019-02-08T04:15:58.002Z,36
2019-02-08T04:20:57.991Z,24
2019-02-08T04:25:58.063Z,28
2019-02-08T04:30:57.828Z,29
2019-02-08T04:35:57.785Z,32
2019-02-08T04:40:57.796Z,33
2019-02-08T04:45:57.956Z,19
2019-02-08T04:50:57.966Z,32
2019-02-08T04:55:57.781Z,28
2019-02-08T05:00:58.122Z,28
2019-02-08T05:05:57.976Z,35
2019-02-08T05:10:57.770Z,29
2019-02-08T05:15:57.697Z,30
2019-02-08T05:20:57.875Z,28
2019-02-08T05:25:57.986Z,23
2019-02-08T05:30:57.819Z,26
2019-02-08T05:35:58.077Z,30
2019-02-08T05:40:57.937Z,17
2019-02-08T05:45:57.966Z,31
2019-02-08T05:50:57.897Z,26
2019-02-08T05:55:57.999Z,30
2019-02-08T06:00:57.696Z,36
2019-02-08T06:05:57.793Z,37
2019-02-08T06:10:57.830Z,31
2019-02-08T06:15:57.902Z,30
2019-02-08T06:20:57.709Z,21
2019-02-08T06:25:57.705Z,25
2019-02-08T06:30:57.945Z,32
2019-02-08T06:35:57.716Z,27
2019-02-08T06:40:57.884Z,31
2019-02-08T06:45:57.784Z,33
2019-02-08T06:50:57.610Z,25
2019-02-08T06:55:57.905Z,33
2019-02-08T07:00:57.643Z,34
2019-02-08T07:05:57.751Z,32
2019-02-08T07:10:57.896Z,28
2019-02-08T07:15:57.691Z,31
2019-02-08T07:20:57.611Z,30
2019-02-08T07:25:57.787Z,34
2019-02-08T07:30:57.615Z,39
2019-02-08T07:35:57.541Z,39
2019-02-08T07:40:57.579Z,31
2019-02-08T07:45:57.826Z,36
2019-02-08T07:50:57.653Z,35
2019-02-08T07:55:57.506Z,30
2019-02-08T08:00:57.630Z,36
2019-02-08T08:05:57.620Z,40
2019-02-08T08:10:57.501Z,34
2019-02-08T08:15:57.647Z,37
2019-02-08T08:20:57.565Z,25
2019-02-08T08:25:57.517Z,31
2019-02-08T08:30:57.630Z,35
2019-02-08T08:35:57.627Z,37
2019-02-08T08:40:57.678Z,32
2019-02-08T08:45:57.463Z,33
2019-02-08T08:50:57.723Z,25
2019-02-08T08:55:57.779Z,36
2019-02-08T09:00:57.620Z,38
2019-02-08T09:05:57.566Z,27
2019-02-08T09:10:57.519Z,40
2019-02-08T09:15:57.670Z,40
2019-02-08T09:20:57.546Z,35
2019-02-08T09:25:57.682Z,32
2019-02-08T09:30:57.606Z,29
2019-02-08T09:35:57.564Z,33
2019-02-08T09:40:57.710Z,37
2019-02-08T09:45:57.708Z,24
2019-02-08T09:50:57.617Z,31
2019-02-08T09:55:58.301Z,28
2019-02-08T10:00:57.515Z,25
2019-02-08T10:05:57.583Z,31
2019-02-08T10:10:57.612Z,31
2019-02-08T10:15:57.643Z,30
2019-02-08T10:20:57.659Z,30
2019-02-08T10:25:57.346Z,28
2019-02-08T10:30:57.658Z,24
2019-02-08T10:35:57.377Z,27
2019-02-08T10:40:57.541Z,20
2019-02-08T10:45:57.344Z,26
2019-02-08T10:50:57.575Z,25
2019-02-08T10:55:57.418Z,22
2019-02-08T11:00:57.522Z,29
2019-02-08T11:05:57.562Z,24
2019-02-08T11:10:57.416Z,29
2019-02-08T11:15:57.285Z,21
2019-02-08T11:20:57.427Z,24
2019-02-08T11:25:57.497Z,24
2019-02-08T11:30:57.443Z,26
2019-02-08T11:35:57.464Z,20
2019-02-08T11:40:57.535Z,23
2019-02-08T11:45:57.483Z,23
2019-02-08T11:50:57.363Z,35
2019-02-08T11:55:57.385Z,24
2019-02-08T12:00:57.310Z,21
2019-02-08T12:05:57.606Z,24
2019-02-08T12:10:57.716Z,27
2019-02-08T12:15:57.342Z,23
2019-02-08T12:20:57.475Z,16
2019-02-08T12:25:57.259Z,16
2019-02-08T12:30:57.545Z,21
2019-02-08T12:35:57.325Z,24
2019-02-08T12:40:57.582Z,24
2019-02-08T12:45:57.460Z,18
2019-02-08T12:50:57.321Z,21
2019-02-08T12:55:57.430Z,13
2019-02-08T13:00:57.526Z,13
2019-02-08T13:05:57.470Z,15
2019-02-08T13:10:57.322Z,19
2019-02-08T13:15:57.817Z,10
2019-02-08T13:20:57.287Z,13
2019-02-08T13:25:57.189Z,16
2019-02-08T13:30:57.184Z,15
2019-02-08T13:35:57.335Z,12
2019-02-08T13:40:57.241Z,17
2019-02-08T13:45:57.316Z,16
2019-02-08T13:50:57.424Z,12
2019-02-08T13:55:57.270Z,12
2019-02-08T14:00:57.281Z,15
2019-02-08T14:05:57.065Z,18
2019-02-08T14:10:57.657Z,13
2019-02-08T14:15:57.189Z,11
2019-02-08T14:20:57.241Z,24
2019-02-08T14:25:57.091Z,19
2019-02-08T14:30:57.135Z,17
2019-02-08T14:35:57.273Z,13
2019-02-08T14:40:57.148Z,19
2019-02-08T14:45:57.115Z,12
2019-02-08T14:50:56.938Z,13
2019-02-08T14:55:57.159Z,16
2019-02-08T15:00:57.194Z,9
2019-02-08T15:05:57.125Z,12
2019-02-08T15:10:57.214Z,12
2019-02-08T15:15:57.163Z,15
2019-02-08T15:20:56.988Z,21
2019-02-08T15:25:57.129Z,17
2019-02-08T15:30:57.254Z,14
2019-02-08T15:35:56.864Z,12
2019-02-08T15:40:57.099Z,9
2019-02-08T15:45:57.278Z,9
2019-02-08T15:50:56.960Z,13
2019-02-08T15:55:57.079Z,15
2019-02-08T16:00:57.261Z,12
2019-02-08T16:05:57.028Z,9
2019-02-08T16:10:57.135Z,12
2019-02-08T16:15:57.053Z,12
2019-02-08T16:20:57.291Z,14
2019-02-08T16:25:57.015Z,15
2019-02-08T16:30:56.979Z,13
2019-02-08T16:35:57.304Z,17
2019-02-08T16:40:56.860Z,11
2019-02-08T16:45:56.854Z,14
2019-02-08T16:50:57.019Z,17
2019-02-08T16:55:56.893Z,12
2019-02-08T17:00:56.983Z,15
2019-02-08T17:05:57.185Z,10
2019-02-08T17:10:57.064Z,10
2019-02-08T17:15:56.946Z,11
2019-02-08T17:20:56.861Z,12
2019-02-08T17:25:57.005Z,13
2019-02-08T17:30:56.792Z,12
2019-02-08T17:35:57.100Z,11
2019-02-08T17:40:57.255Z,13
2019-02-08T17:45:56.823Z,17
2019-02-08T17:50:57.035Z,19
2019-02-08T17:55:56.723Z,13
2019-02-08T18:00:56.841Z,15
2019-02-08T18:05:56.900Z,14
2019-02-08T18:10:56.944Z,9
2019-02-08T18:15:57.083Z,16
2019-02-08T18:20:56.733Z,13
2019-02-08T18:25:59.301Z,14
2019-02-08T18:30:57.035Z,16
2019-02-08T18:35:56.892Z,15
2019-02-08T18:40:56.797Z,13
2019-02-08T18:45:56.873Z,15
2019-02-08T18:50:56.828Z,13
2019-02-08T18:55:56.778Z,17
2019-02-08T19:00:56.876Z,15
2019-02-08T19:05:56.766Z,15
2019-02-08T19:28:41.663Z,56
2019-02-08T19:31:27.228Z,56
2019-02-08T19:36:27.140Z,47
2019-02-08T19:41:27.320Z,20
2019-02-08T20:11:29.431Z,55
2019-02-08T20:16:26.931Z,38
2019-02-08T20:21:26.824Z,30
2019-02-08T20:26:26.762Z,22
2019-02-08T20:31:26.874Z,28
2019-02-08T20:36:27.004Z,18
2019-02-08T20:41:26.990Z,62
2019-02-08T20:46:27.050Z,33
2019-02-08T20:51:26.723Z,87
2019-02-08T20:56:26.737Z,46
2019-02-08T21:01:28.562Z,64
2019-02-08T21:06:27.077Z,26
2019-02-08T21:11:27.023Z,30
2019-02-08T21:16:26.906Z,24
2019-02-08T21:21:26.910Z,25
2019-02-08T21:26:26.667Z,29
2019-02-08T21:31:26.855Z,17
2019-02-08T21:36:26.965Z,24
2019-02-08T21:41:26.851Z,19
2019-02-08T21:46:26.750Z,64
2019-02-08T21:51:26.815Z,86
2019-02-08T21:56:26.718Z,28
2019-02-08T22:01:26.952Z,25
2019-02-08T22:06:26.786Z,34
2019-02-08T22:11:26.824Z,25
2019-02-08T22:16:26.902Z,22
2019-02-08T22:21:26.715Z,17
2019-02-08T22:26:26.614Z,17
2019-02-08T22:31:26.793Z,14
2019-02-08T22:36:26.665Z,14
2019-02-08T22:41:26.940Z,13
2019-02-08T22:46:26.618Z,19
2019-02-08T22:51:26.956Z,17
2019-02-08T22:56:26.697Z,13
2019-02-08T23:01:26.905Z,12
2019-02-08T23:06:26.870Z,17
2019-02-08T23:11:26.751Z,15
2019-02-08T23:16:26.649Z,15
2019-02-08T23:21:26.897Z,15
2019-02-08T23:26:26.530Z,15
2019-02-08T23:31:27.037Z,15
2019-02-08T23:36:26.870Z,12
2019-02-08T23:41:26.903Z,15
2019-02-08T23:46:26.866Z,11
2019-02-08T23:51:26.922Z,14
2019-02-08T23:56:26.705Z,18
